Atlantic Nyala — 9HYD9 — position and weather

sailwx.info

Track history (hours):
 
Tides and Currents Weather Stations Pressure Air Temp Water Temp Dewpoint Dewpoint Depression Visibility Wind Speed Wind Dir Waves Ship Positions

Atlantic Nyala

Last reported at 2014-Nov-30 06:09 UTC. Time now 2014-Dec-20 21:37 UTC.
Position S 33°51' E 018°04'.
Warning: this ship's position is 20 days out of date.

Length 173 m; draft 9.4 m.

Type: Ship. MMSI: 249692000.

Date/timePositionNaut miles runAvg speedWind from/ knotsBaromVisibWave heightAir tempDewpointWater temp
2014-Nov-30 06:09S 33°51' E 018°04'812.5
2014-Nov-30 05:30S 33°58' E 018°07'1212.5
2014-Nov-30 04:33S 34°10' E 018°10'3511.7
2014-Nov-30 01:33S 34°35' E 018°40'  
2014-Nov-27 18:05S 30°15' E 030°54'712.9
2014-Nov-27 17:33S 30°09' E 030°58'1313.0
2014-Nov-27 16:33S 29°58' E 031°06'7 6.8
2014-Nov-27 15:33S 29°52' E 031°04'4 3.6
2014-Nov-27 14:33S 29°53' E 030°60'0 0.0
2014-Nov-27 13:33S 29°53' E 030°60'0 0.0
2014-Nov-27 12:33S 29°53' E 030°60'0 0.0
2014-Nov-27 11:33S 29°53' E 030°60'0 0.0
2014-Nov-27 10:33S 29°53' E 030°60'0 0.0
2014-Nov-27 09:33S 29°53' E 030°60'0 0.0
2014-Nov-27 08:33S 29°53' E 030°60'0 0.0
2014-Nov-27 07:33S 29°53' E 030°60'0 0.1
2014-Nov-27 06:34S 29°53' E 030°60'0 0.1
2014-Nov-27 05:30S 29°53' E 030°60'0 0.0
2014-Nov-27 04:30S 29°53' E 030°60'0 0.0
2014-Nov-27 03:30S 29°53' E 030°60'0 0.0
2014-Nov-27 02:30S 29°53' E 030°60'0 0.0
2014-Nov-27 01:30S 29°53' E 030°60'0 0.0
2014-Nov-27 00:24S 29°53' E 030°60'0 0.0
2014-Nov-26 23:30S 29°53' E 030°60'0 0.0
2014-Nov-26 22:30S 29°53' E 030°60'0 0.0
2014-Nov-26 21:30S 29°53' E 030°60'0 0.0
2014-Nov-26 20:30S 29°53' E 030°60'0 0.0
2014-Nov-26 19:30S 29°53' E 030°60'0 0.0
2014-Nov-26 18:30S 29°53' E 030°60'0 0.0
2014-Nov-26 17:30S 29°53' E 030°60'0 0.0
2014-Nov-26 16:30S 29°53' E 030°60'0 0.0
2014-Nov-26 15:30S 29°53' E 030°60'0 0.0
2014-Nov-26 14:30S 29°53' E 030°60'0 0.0
2014-Nov-26 13:30S 29°53' E 030°60'0 0.0
2014-Nov-26 12:30S 29°53' E 030°60'0 0.0
2014-Nov-26 11:30S 29°53' E 030°60'0 0.0
2014-Nov-26 10:30S 29°53' E 030°60'0 0.0
2014-Nov-26 09:30S 29°53' E 030°60'0 0.0
2014-Nov-26 08:30S 29°53' E 030°60'0 0.0
2014-Nov-26 07:30S 29°53' E 030°60'0 0.0
2014-Nov-26 06:30S 29°53' E 030°60'0 0.0
2014-Nov-26 05:24S 29°53' E 030°60'0 0.0
2014-Nov-26 04:30S 29°53' E 030°60'0 0.0
2014-Nov-26 03:30S 29°53' E 030°60'0 0.0
2014-Nov-26 02:30S 29°53' E 030°60'0 0.0
2014-Nov-26 01:30S 29°53' E 030°60'0 0.0
2014-Nov-26 00:30S 29°53' E 030°60'0 0.0
2014-Nov-25 23:30S 29°53' E 030°60'0 0.0
2014-Nov-25 22:30S 29°53' E 030°60'0 0.0
2014-Nov-25 21:30S 29°53' E 030°60'0 0.0
2014-Nov-25 20:30S 29°53' E 030°60'0 0.0
2014-Nov-25 19:30S 29°53' E 030°60'0 0.0
2014-Nov-25 18:30S 29°53' E 030°60'0 0.0
2014-Nov-25 17:30S 29°53' E 030°60'0 0.0
2014-Nov-25 16:30S 29°53' E 030°60'0 0.0
2014-Nov-25 15:30S 29°53' E 030°60'0 0.0
2014-Nov-25 14:30S 29°53' E 030°60'0 0.0
2014-Nov-25 13:30S 29°53' E 030°60'0 0.0
2014-Nov-25 12:30S 29°53' E 030°60'0 0.0
2014-Nov-25 11:30S 29°53' E 030°60'0 0.0
2014-Nov-25 10:30S 29°53' E 030°60'0 0.0
2014-Nov-25 09:30S 29°53' E 030°60'0 0.0
2014-Nov-25 08:30S 29°53' E 030°60'0 0.0
2014-Nov-25 07:30S 29°53' E 030°60'0 0.0
2014-Nov-25 06:24S 29°53' E 030°60'0 0.0
2014-Nov-25 05:30S 29°53' E 030°60'0 0.0
2014-Nov-25 04:30S 29°53' E 030°60'0 0.0
2014-Nov-25 03:30S 29°53' E 030°60'0 0.0
2014-Nov-25 02:30S 29°53' E 030°60'2 2.3
2014-Nov-25 01:33S 29°52' E 031°02'5 4.8
2014-Nov-25 00:33S 29°49' E 031°06'2 2.0
2014-Nov-24 23:33S 29°48' E 031°08'2 2.0
2014-Nov-24 22:33S 29°47' E 031°10'1 0.5
2014-Nov-24 21:31S 29°47' E 031°10'0 0.0
2014-Nov-24 20:31S 29°47' E 031°10'0 0.0
2014-Nov-24 19:31S 29°47' E 031°10'0 0.0
2014-Nov-24 18:31S 29°47' E 031°10'0 0.0
2014-Nov-24 17:31S 29°47' E 031°10'0 0.0
2014-Nov-24 16:31S 29°47' E 031°10'0 0.0
2014-Nov-24 15:31S 29°47' E 031°10'0 0.0
2014-Nov-24 14:31S 29°47' E 031°10'0 0.0
2014-Nov-24 13:31S 29°47' E 031°10'0 0.0
2014-Nov-24 12:31S 29°47' E 031°10'0 0.0
2014-Nov-24 11:31S 29°47' E 031°10'0 0.0
2014-Nov-24 10:31S 29°47' E 031°10'0 0.0
2014-Nov-24 09:31S 29°47' E 031°10'0 0.0
2014-Nov-24 08:31S 29°47' E 031°10'0 0.0
2014-Nov-24 07:31S 29°47' E 031°10'0 0.0
2014-Nov-24 06:31S 29°47' E 031°10'0 0.0
2014-Nov-24 05:31S 29°47' E 031°10'0 0.0
2014-Nov-24 04:31S 29°47' E 031°10'0 0.1
2014-Nov-24 03:25S 29°47' E 031°10'0 0.0
2014-Nov-24 02:31S 29°47' E 031°10'0 0.0
2014-Nov-24 01:31S 29°47' E 031°10'0 0.1
2014-Nov-24 00:31S 29°47' E 031°10'0 0.2
2014-Nov-23 23:31S 29°47' E 031°10'0 0.0
2014-Nov-23 22:31S 29°47' E 031°10'0 0.0
2014-Nov-23 21:25S 29°47' E 031°10'0 0.0
2014-Nov-23 20:31S 29°47' E 031°10'0 0.0
2014-Nov-23 19:31S 29°47' E 031°10'0 0.1
2014-Nov-23 18:31S 29°47' E 031°10'0 0.1
2014-Nov-23 17:31S 29°47' E 031°10'0 0.0
2014-Nov-23 16:31S 29°47' E 031°10'0 0.0
2014-Nov-23 15:31S 29°47' E 031°10'0 0.0
2014-Nov-23 14:31S 29°47' E 031°10'0 0.0
2014-Nov-23 13:31S 29°47' E 031°10'0 0.0
2014-Nov-23 12:31S 29°47' E 031°10'0 0.0
2014-Nov-23 11:31S 29°47' E 031°10'0 0.0
2014-Nov-23 10:31S 29°47' E 031°10'0 0.0
2014-Nov-23 09:31S 29°47' E 031°10'0 0.0
2014-Nov-23 08:31S 29°47' E 031°10'0 0.0
2014-Nov-23 07:31S 29°47' E 031°10'0 0.0
2014-Nov-23 06:31S 29°47' E 031°10'0 0.0
2014-Nov-22 12:13S 29°47' E 031°10'0 0.0
2014-Nov-22 11:31S 29°47' E 031°10'0 0.0
2014-Nov-22 10:31S 29°47' E 031°10'0 0.0
2014-Nov-22 09:31S 29°47' E 031°10'0 0.0
2014-Nov-22 08:31S 29°47' E 031°10'0 0.0
2014-Nov-22 07:31S 29°47' E 031°10'0 0.0
2014-Nov-22 06:31S 29°47' E 031°10'0 0.0
2014-Nov-22 05:31S 29°47' E 031°10'0 0.0
2014-Nov-22 04:31S 29°47' E 031°10'2 2.4
2014-Nov-22 03:33S 29°49' E 031°09'7 7.2
2014-Nov-22 02:33S 29°52' E 031°01'1 1.3
2014-Nov-22 01:29S 29°53' E 031°00'0 0.0
2014-Nov-22 00:17S 29°53' E 031°00'0 0.0
2014-Nov-21 23:29S 29°53' E 031°00'0 0.0
2014-Nov-21 22:23S 29°53' E 031°00'0 0.0
2014-Nov-21 21:29S 29°53' E 031°00'0 0.0
2014-Nov-21 20:23S 29°53' E 031°00'0 0.0
2014-Nov-21 19:29S 29°53' E 031°00'0 0.0
2014-Nov-21 18:29S 29°53' E 031°00'0 0.0
2014-Nov-21 17:23S 29°53' E 031°00'0 0.0
2014-Nov-21 15:23S 29°53' E 031°00'0 0.0
2014-Nov-21 14:29S 29°53' E 031°00'0 0.0
2014-Nov-21 13:29S 29°53' E 031°00'0 0.0
2014-Nov-21 12:29S 29°53' E 031°00'0 0.0
2014-Nov-21 11:29S 29°53' E 031°00'1 0.5
2014-Nov-21 10:32S 29°53' E 031°00'6 5.7
2014-Nov-21 09:33S 29°49' E 031°06'1 1.5
2014-Nov-21 08:33S 29°49' E 031°07'0 0.4
2014-Nov-21 07:34S 29°49' E 031°08'1 1.3
2014-Nov-21 06:33S 29°48' E 031°09'2 2.4
2014-Nov-21 05:33S 29°47' E 031°12'0 0.1
2014-Nov-21 04:31S 29°47' E 031°12'0 0.0
2014-Nov-21 03:31S 29°47' E 031°12'0 0.0
2014-Nov-21 02:31S 29°47' E 031°12'0 0.0
2014-Nov-21 01:31S 29°47' E 031°12'0 0.0
2014-Nov-21 00:31S 29°47' E 031°12'0 0.0
2014-Nov-20 23:31S 29°47' E 031°12'0 0.0
2014-Nov-20 22:31S 29°47' E 031°12'0 0.0
2014-Nov-20 21:31S 29°47' E 031°12'0 0.1
2014-Nov-20 20:31S 29°47' E 031°12'0 0.0
2014-Nov-20 19:31S 29°47' E 031°12'0 0.0
2014-Nov-20 18:31S 29°47' E 031°12'0 0.0
2014-Nov-20 17:25S 29°47' E 031°12'0 0.0
2014-Nov-20 16:31S 29°47' E 031°12'0 0.0
2014-Nov-20 15:31S 29°47' E 031°12'0 0.0
2014-Nov-20 14:31S 29°47' E 031°12'0 0.0
2014-Nov-20 13:31S 29°47' E 031°12'0 0.0
2014-Nov-20 12:31S 29°47' E 031°12'0 0.0
2014-Nov-20 11:31S 29°47' E 031°12'0 0.0
2014-Nov-20 10:31S 29°47' E 031°12'0 0.0
2014-Nov-20 09:31S 29°47' E 031°12'0 0.0
2014-Nov-20 08:31S 29°47' E 031°12'0 0.0
2014-Nov-20 07:31S 29°47' E 031°12'0 0.0
2014-Nov-20 06:31S 29°47' E 031°12'  
Track history (hours):
 
Tides and Currents Weather Stations Pressure Air Temp Water Temp Dewpoint Dewpoint Depression Visibility Wind Speed Wind Dir Waves Ship Positions

Atlantic Nyala

Last reported at 2014-Nov-30 06:09 UTC. Time now 2014-Dec-20 21:37 UTC.
Position S 33°51' E 018°04'.
Warning: this ship's position is 20 days out of date.

Length 173 m; draft 9.4 m.

Type: Ship. MMSI: 249692000.

Date/timePositionNaut miles runAvg speedWind from/ knotsBaromVisibWave heightAir tempDewpointWater temp
2014-Nov-30 06:09S 33°51' E 018°04'812.5
2014-Nov-30 05:30S 33°58' E 018°07'1212.5
2014-Nov-30 04:33S 34°10' E 018°10'3511.7
2014-Nov-30 01:33S 34°35' E 018°40'  
2014-Nov-27 18:05S 30°15' E 030°54'712.9
2014-Nov-27 17:33S 30°09' E 030°58'1313.0
2014-Nov-27 16:33S 29°58' E 031°06'7 6.8
2014-Nov-27 15:33S 29°52' E 031°04'4 3.6
2014-Nov-27 14:33S 29°53' E 030°60'0 0.0
2014-Nov-27 13:33S 29°53' E 030°60'0 0.0
2014-Nov-27 12:33S 29°53' E 030°60'0 0.0
2014-Nov-27 11:33S 29°53' E 030°60'0 0.0
2014-Nov-27 10:33S 29°53' E 030°60'0 0.0
2014-Nov-27 09:33S 29°53' E 030°60'0 0.0
2014-Nov-27 08:33S 29°53' E 030°60'0 0.0
2014-Nov-27 07:33S 29°53' E 030°60'0 0.1
2014-Nov-27 06:34S 29°53' E 030°60'0 0.1
2014-Nov-27 05:30S 29°53' E 030°60'0 0.0
2014-Nov-27 04:30S 29°53' E 030°60'0 0.0
2014-Nov-27 03:30S 29°53' E 030°60'0 0.0
2014-Nov-27 02:30S 29°53' E 030°60'0 0.0
2014-Nov-27 01:30S 29°53' E 030°60'0 0.0
2014-Nov-27 00:24S 29°53' E 030°60'0 0.0
2014-Nov-26 23:30S 29°53' E 030°60'0 0.0
2014-Nov-26 22:30S 29°53' E 030°60'0 0.0
2014-Nov-26 21:30S 29°53' E 030°60'0 0.0
2014-Nov-26 20:30S 29°53' E 030°60'0 0.0
2014-Nov-26 19:30S 29°53' E 030°60'0 0.0
2014-Nov-26 18:30S 29°53' E 030°60'0 0.0
2014-Nov-26 17:30S 29°53' E 030°60'0 0.0
2014-Nov-26 16:30S 29°53' E 030°60'0 0.0
2014-Nov-26 15:30S 29°53' E 030°60'0 0.0
2014-Nov-26 14:30S 29°53' E 030°60'0 0.0
2014-Nov-26 13:30S 29°53' E 030°60'0 0.0
2014-Nov-26 12:30S 29°53' E 030°60'0 0.0
2014-Nov-26 11:30S 29°53' E 030°60'0 0.0
2014-Nov-26 10:30S 29°53' E 030°60'0 0.0
2014-Nov-26 09:30S 29°53' E 030°60'0 0.0
2014-Nov-26 08:30S 29°53' E 030°60'0 0.0
2014-Nov-26 07:30S 29°53' E 030°60'0 0.0
2014-Nov-26 06:30S 29°53' E 030°60'0 0.0
2014-Nov-26 05:24S 29°53' E 030°60'0 0.0
2014-Nov-26 04:30S 29°53' E 030°60'0 0.0
2014-Nov-26 03:30S 29°53' E 030°60'0 0.0
2014-Nov-26 02:30S 29°53' E 030°60'0 0.0
2014-Nov-26 01:30S 29°53' E 030°60'0 0.0
2014-Nov-26 00:30S 29°53' E 030°60'0 0.0
2014-Nov-25 23:30S 29°53' E 030°60'0 0.0
2014-Nov-25 22:30S 29°53' E 030°60'0 0.0
2014-Nov-25 21:30S 29°53' E 030°60'0 0.0
2014-Nov-25 20:30S 29°53' E 030°60'0 0.0
2014-Nov-25 19:30S 29°53' E 030°60'0 0.0
2014-Nov-25 18:30S 29°53' E 030°60'0 0.0
2014-Nov-25 17:30S 29°53' E 030°60'0 0.0
2014-Nov-25 16:30S 29°53' E 030°60'0 0.0
2014-Nov-25 15:30S 29°53' E 030°60'0 0.0
2014-Nov-25 14:30S 29°53' E 030°60'0 0.0
2014-Nov-25 13:30S 29°53' E 030°60'0 0.0
2014-Nov-25 12:30S 29°53' E 030°60'0 0.0
2014-Nov-25 11:30S 29°53' E 030°60'0 0.0
2014-Nov-25 10:30S 29°53' E 030°60'0 0.0
2014-Nov-25 09:30S 29°53' E 030°60'0 0.0
2014-Nov-25 08:30S 29°53' E 030°60'0 0.0
2014-Nov-25 07:30S 29°53' E 030°60'0 0.0
2014-Nov-25 06:24S 29°53' E 030°60'0 0.0
2014-Nov-25 05:30S 29°53' E 030°60'0 0.0
2014-Nov-25 04:30S 29°53' E 030°60'0 0.0
2014-Nov-25 03:30S 29°53' E 030°60'0 0.0
2014-Nov-25 02:30S 29°53' E 030°60'2 2.3
2014-Nov-25 01:33S 29°52' E 031°02'5 4.8
2014-Nov-25 00:33S 29°49' E 031°06'2 2.0
2014-Nov-24 23:33S 29°48' E 031°08'2 2.0
2014-Nov-24 22:33S 29°47' E 031°10'1 0.5
2014-Nov-24 21:31S 29°47' E 031°10'0 0.0
2014-Nov-24 20:31S 29°47' E 031°10'0 0.0
2014-Nov-24 19:31S 29°47' E 031°10'0 0.0
2014-Nov-24 18:31S 29°47' E 031°10'0 0.0
2014-Nov-24 17:31S 29°47' E 031°10'0 0.0
2014-Nov-24 16:31S 29°47' E 031°10'0 0.0
2014-Nov-24 15:31S 29°47' E 031°10'0 0.0
2014-Nov-24 14:31S 29°47' E 031°10'0 0.0
2014-Nov-24 13:31S 29°47' E 031°10'0 0.0
2014-Nov-24 12:31S 29°47' E 031°10'0 0.0
2014-Nov-24 11:31S 29°47' E 031°10'0 0.0
2014-Nov-24 10:31S 29°47' E 031°10'0 0.0
2014-Nov-24 09:31S 29°47' E 031°10'0 0.0
2014-Nov-24 08:31S 29°47' E 031°10'0 0.0
2014-Nov-24 07:31S 29°47' E 031°10'0 0.0
2014-Nov-24 06:31S 29°47' E 031°10'0 0.0
2014-Nov-24 05:31S 29°47' E 031°10'0 0.0
2014-Nov-24 04:31S 29°47' E 031°10'0 0.1
2014-Nov-24 03:25S 29°47' E 031°10'0 0.0
2014-Nov-24 02:31S 29°47' E 031°10'0 0.0
2014-Nov-24 01:31S 29°47' E 031°10'0 0.1
2014-Nov-24 00:31S 29°47' E 031°10'0 0.2
2014-Nov-23 23:31S 29°47' E 031°10'0 0.0
2014-Nov-23 22:31S 29°47' E 031°10'0 0.0
2014-Nov-23 21:25S 29°47' E 031°10'0 0.0
2014-Nov-23 20:31S 29°47' E 031°10'0 0.0
2014-Nov-23 19:31S 29°47' E 031°10'0 0.1
2014-Nov-23 18:31S 29°47' E 031°10'0 0.1
2014-Nov-23 17:31S 29°47' E 031°10'0 0.0
2014-Nov-23 16:31S 29°47' E 031°10'0 0.0
2014-Nov-23 15:31S 29°47' E 031°10'0 0.0
2014-Nov-23 14:31S 29°47' E 031°10'0 0.0
2014-Nov-23 13:31S 29°47' E 031°10'0 0.0
2014-Nov-23 12:31S 29°47' E 031°10'0 0.0
2014-Nov-23 11:31S 29°47' E 031°10'0 0.0
2014-Nov-23 10:31S 29°47' E 031°10'0 0.0
2014-Nov-23 09:31S 29°47' E 031°10'0 0.0
2014-Nov-23 08:31S 29°47' E 031°10'0 0.0
2014-Nov-23 07:31S 29°47' E 031°10'0 0.0
2014-Nov-23 06:31S 29°47' E 031°10'0 0.0
2014-Nov-22 12:13S 29°47' E 031°10'0 0.0
2014-Nov-22 11:31S 29°47' E 031°10'0 0.0
2014-Nov-22 10:31S 29°47' E 031°10'0 0.0
2014-Nov-22 09:31S 29°47' E 031°10'0 0.0
2014-Nov-22 08:31S 29°47' E 031°10'0 0.0
2014-Nov-22 07:31S 29°47' E 031°10'0 0.0
2014-Nov-22 06:31S 29°47' E 031°10'0 0.0
2014-Nov-22 05:31S 29°47' E 031°10'0 0.0
2014-Nov-22 04:31S 29°47' E 031°10'2 2.4
2014-Nov-22 03:33S 29°49' E 031°09'7 7.2
2014-Nov-22 02:33S 29°52' E 031°01'1 1.3
2014-Nov-22 01:29S 29°53' E 031°00'0 0.0
2014-Nov-22 00:17S 29°53' E 031°00'0 0.0
2014-Nov-21 23:29S 29°53' E 031°00'0 0.0
2014-Nov-21 22:23S 29°53' E 031°00'0 0.0
2014-Nov-21 21:29S 29°53' E 031°00'0 0.0
2014-Nov-21 20:23S 29°53' E 031°00'0 0.0
2014-Nov-21 19:29S 29°53' E 031°00'0 0.0
2014-Nov-21 18:29S 29°53' E 031°00'0 0.0
2014-Nov-21 17:23S 29°53' E 031°00'0 0.0
2014-Nov-21 15:23S 29°53' E 031°00'0 0.0
2014-Nov-21 14:29S 29°53' E 031°00'0 0.0
2014-Nov-21 13:29S 29°53' E 031°00'0 0.0
2014-Nov-21 12:29S 29°53' E 031°00'0 0.0
2014-Nov-21 11:29S 29°53' E 031°00'1 0.5
2014-Nov-21 10:32S 29°53' E 031°00'6 5.7
2014-Nov-21 09:33S 29°49' E 031°06'1 1.5
2014-Nov-21 08:33S 29°49' E 031°07'0 0.4
2014-Nov-21 07:34S 29°49' E 031°08'1 1.3
2014-Nov-21 06:33S 29°48' E 031°09'2 2.4
2014-Nov-21 05:33S 29°47' E 031°12'0 0.1
2014-Nov-21 04:31S 29°47' E 031°12'0 0.0
2014-Nov-21 03:31S 29°47' E 031°12'0 0.0
2014-Nov-21 02:31S 29°47' E 031°12'0 0.0
2014-Nov-21 01:31S 29°47' E 031°12'0 0.0
2014-Nov-21 00:31S 29°47' E 031°12'0 0.0
2014-Nov-20 23:31S 29°47' E 031°12'0 0.0
2014-Nov-20 22:31S 29°47' E 031°12'0 0.0
2014-Nov-20 21:31S 29°47' E 031°12'0 0.1
2014-Nov-20 20:31S 29°47' E 031°12'0 0.0
2014-Nov-20 19:31S 29°47' E 031°12'0 0.0
2014-Nov-20 18:31S 29°47' E 031°12'0 0.0
2014-Nov-20 17:25S 29°47' E 031°12'0 0.0
2014-Nov-20 16:31S 29°47' E 031°12'0 0.0
2014-Nov-20 15:31S 29°47' E 031°12'0 0.0
2014-Nov-20 14:31S 29°47' E 031°12'0 0.0
2014-Nov-20 13:31S 29°47' E 031°12'0 0.0
2014-Nov-20 12:31S 29°47' E 031°12'0 0.0
2014-Nov-20 11:31S 29°47' E 031°12'0 0.0
2014-Nov-20 10:31S 29°47' E 031°12'0 0.0
2014-Nov-20 09:31S 29°47' E 031°12'0 0.0
2014-Nov-20 08:31S 29°47' E 031°12'0 0.0
2014-Nov-20 07:31S 29°47' E 031°12'0 0.0
2014-Nov-20 06:31S 29°47' E 031°12'  

Dump ship's entire track history